首页
METAR-TAF:

METAR-TAF

机场 :

Bogue_Field/MCALF

Swansboro, 北卡罗来纳州, 美国

纬度: 34-41-34N, 经度: 077-01-46W, 海拔: 6米

当前天气观测

该预报发布于33分钟前的12:57 UTC
风速7节,风向西转西南
温度 28°C
湿度 79%
气压 1016 hPa
能見度: 16.1公里
少量云层高于2700英尺
散云层高于3600英尺
阴天层高于6500英尺

METAR: KNJM 171257Z AUTO 25007KT 10SM FEW027 SCT036 OVC065 28/24 A3001 RMK AO2 SLP165 T02830244

时间: 09:30 (13:30 UTC)


TAF: 丢失

超过4000个机场的气象观测和天气预报(METAR&TAF报告)。

可查询的气象台以黄色和红色小点在地图上表示。

将鼠标移到小点上方,可查看气象台名称。

然后点击查看天气观测和预报。

如需切换地图:点击带黑十字的绿色按钮放大地图;点击带横线的绿色按钮缩小地图;或者点击绿色箭头查看邻近地区的地图。


METAR-TAF: